Tropical Cyclones
[Index]
Main Index Home Page Stock Weather Photos Extreme Storms Discussion Storm News and Storm Chasing Reports Tropical Cyclones / Hurricanes / Typhoons Weather Data and Links Wild Fires / Bushfires Weather Observation Techniques Weather Picture Catalogue Tornado Pictures and Reports Stock Video Footage and DVDs for sale
Season 1974-1975 Tropical Cyclone CAMILLE Track Map
Season 1974-1975 Summaries: [BoM-AU] [JTWC-AU] [JTWC-SIO] [JTWC-SPAC] [JTWC-SH]
<<- Previous TC | JTWC 1974-1975 Season | Next TC ->>

click for intensity scale information  Lat/long Grid: Show Hide

 Date Labels: Show Hide

Joint Typhoon Warning Centre Cyclone Data

Name: CAMILLE
Number: 882 / 7510

10 Jan 1975 18:00 UTC to 21 Jan 1975 18:00 UTC

    date/time    lat    long     hPa   cat  kts
1975-01-10 18    8.0    55.4                              
1975-01-11 00    8.6    54.3                              
1975-01-11 06    9.1    53.6                              
1975-01-11 12    9.6    53.2                              
1975-01-11 18   10.0    53.0                              
1975-01-12 00   10.8    53.0                              
1975-01-12 06   11.3    52.9                              
1975-01-12 12   11.2    52.5                              
1975-01-12 18   11.0    52.1                              
1975-01-13 00   10.9    51.6                              
1975-01-13 06   10.8    51.2                              
1975-01-13 12   10.8    50.8                              
1975-01-13 18   10.9    50.4                              
1975-01-14 00   10.9    50.3                              
1975-01-14 06   11.0    50.0                              
1975-01-14 12   11.5    49.0                              
1975-01-14 18   12.4    47.9                              
1975-01-15 00   13.3    47.0                              
1975-01-15 06   14.0    46.0                              
1975-01-15 12   14.3    45.0                              
1975-01-15 18   14.6    44.0                              
1975-01-16 00   14.9    42.9                              
1975-01-16 06   15.3    42.2                              
1975-01-16 12   15.7    42.2                              
1975-01-16 18   16.1    42.1                              
1975-01-17 00   16.5    42.1                              
1975-01-17 06   17.0    42.0                              
1975-01-17 12   17.5    41.8                              
1975-01-17 18   18.0    41.4                              
1975-01-18 00   18.6    41.2                              
1975-01-18 06   19.2    41.2                              
1975-01-18 12   19.8    41.8                              
1975-01-18 18   20.4    42.9                              
1975-01-19 00   21.5    44.1                              
1975-01-19 06   22.6    45.2                              
1975-01-19 12   23.2    46.3                              
1975-01-19 18   23.7    47.3                              
1975-01-20 00   24.1    48.4                              
1975-01-20 06   24.6    49.6                              
1975-01-20 12   25.5    51.1                              
1975-01-20 18   27.0    52.7                              
1975-01-21 00   29.0    53.6                              
1975-01-21 06   31.0    54.2                              
1975-01-21 12   32.5    54.5                              
1975-01-21 18   33.8    54.6                              
Winds are 1-min average.

Tropical cyclone tracks developed by Michael Bath using data from the Joint Typhoon Warning Centre Best Tracks and Google Maps.


[Australian Severe Weather index] [Copyright Notice] [Email Contacts] [Search This Site] [Privacy Policy]
Document: tropical_cyclone_camille.htm Updated: 18 September 2016